Duluth, Minnesota
Current Conditions -  °F | °C
As of 9:55 PM on Friday 24 Oct 2014 (Local Time) from KDLH Reporting Station
Clear Clear  
Wind Chill: 57°   Ceiling: Unl
Heat Index: 57°   Visibility: 10mi
Dew Point: 45°   Wind: 13mph
Humidity: 64%   Direction: 260°W
Pressure: 29.74"   Gusts: NA
Location:  46.79°N, 92.09°W
Report Text: KDLH 250255Z 26011KT 10SM CLR 14/07 A2974 RMK AO2 SLP076 T01390072 58008
Loading
Personal Weather Stations






























Interactive Weather Map New forecast layout! Learn more

10-Day Weather Forecast

Advertisements
Track Severe Weather on mobile